Hauptseite
METAR-TAF:

METAR-TAF

Flughäfen :

Indira Gandhi International Airport

Neu-Delhi, Indien

Breite: 28-34N, Länge: 077-07E, Höhe: 220 m

Beobachtung

Neuester Wetterbericht von vor 41 Minuten, um 16:30 UTC
Wind 11 kt aus Ost
Temperatur 35°C
Luftfeuchtigkeit 47%
Luftdruck 1002 hPa
Sichtweite: 3500 m
Leicht bewölkt in der Höhe von 10000 ft
trockener Dunst,

METAR: VIDP 221630Z 09011KT 3500 HZ FEW100 35/22 Q1002 NOSIG

Zeit: 22:41 (17:11 UTC)

Prognose

Neuester Wetterbericht von vor 3 Stunden und 11 Minuten, um 14:00 UTC
Gültige Prognose vom 22 um 15 UTC bis 22 um 24 UTC
Wind 10 kt aus Ost/Südost
Sichtweite: 3500 m
Leicht bewölkt in der Höhe von 10000 ft
trockener Dunst
Übergehend zu
vom 22 um 18 UTC bis 22 um 20 UTC
Wind 8 kt aus Südost
Sichtweite: 3000 m
trockener Dunst,

TAF: VIDP 221400Z 2215/2224 11010KT 3500 HZ FEW100 BECMG 2218/2220 14008KT 3000 HZ

Wetterbeobachtungen und Prognosen von mehr als 4000 Flughäfen (METAR und TAF Bericht).

Die verfügbaren Stationen werden durch gelbe und rote Markierungen auf der Karte dargestellt.

Führen Sie die Maus auf sie, um den Namen der Station zu sehen.

Darauf klicken, um die Beobachtung von Wetterbeobachtungen und Prognosen zu sehen.

Um die Karte zu ändern : klicken Sie auf den grünen Tasten mit einem schwarzen Kreuz Zum Vergrößern, auf den grünen Button mit einem Gedankenstrich zu verkleinern, oder auf die grünen Pfeile für benachbarte Karten.


METAR-TAF: